Tiempo atmosférico en la estación meteorológica de Arenys De Mar, Barcelona (50 m.)



Fecha
DESCASC
Temp. máxima en grados centígrados (hora)
DESCASC
Temp. mínima en grados centígrados (hora)
DESCASC
Temp. media en grados centígrados
DESCASC
Racha de viento máxima en m/sg (hora)
DESCASC
Velocidad máxima media en intervalos de 10 minutos(hora)
DESCASC
Precipitaciones diarias en mm
DESCASC
Precipitaciones de 00:00 a 06:00 en mm
DESCASC
Precipitaciones de 06:00 a 12:00 en mm
DESCASC
Precipitaciones de 12:00 a 18:00 en mm
DESCASC
Precipitaciones de 18:00 a 24:00 en mm
DESCASC
17-09-2020 30.5 (13:00) 19.7 (03:40) 25.1 4.72 (19:10) 1.94 (17:40) 0 0 0 0 0
16-09-2020 28.6 (16:40) 19.4 (07:10) 24 4.44 (17:30) 2.22 (17:10) 0 0 0 0 0
15-09-2020 29.4 (12:50) 18.8 (07:40) 24.1 5.56 (17:50) 2.78 (16:40) 0 0 0 0 0
14-09-2020 28.7 (11:30) 18.6 (00:00) 23.7 4.72 (15:30) 1.94 (02:40) 0 0 0 0 0
13-09-2020 32 (12:50) 19.6 (00:00) 25.8 4.17 (07:10) 2.22 (07:30) 0 0 0 0 0
12-09-2020 31.5 (12:10) 18.8 (00:00) 25.1 4.72 (14:00) 2.22 (14:00) 0 0 0 0 0
11-09-2020 30.9 (14:30) 18.6 (00:00) 24.8 5.28 (16:00) 2.22 (15:00) 0.2 0.2 0 0 0
10-09-2020 28.1 (13:20) 17.3 (00:00) 22.7 9.17 (15:40) 3.06 (14:20) 8 0 0 8 0
09-09-2020 27.5 (13:50) 18.4 (00:00) 22.9 7.22 (10:40) 3.33 (05:30) 0.4 0.4 0 0 0
08-09-2020 27.3 (14:10) 14.6 (00:00) 20.9 11.11 (18:20) 5 (18:20) 0 0 0 0 0
07-09-2020 25.3 (14:40) 15.2 (23:59) 20.2 5.28 (01:10) 2.78 (01:10) 6.9 5.4 0 0.1 1.4
06-09-2020 29.4 (14:10) 18.3 (00:00) 23.8 6.94 (16:00) 2.78 (21:50) 3.2 0 0 0 3.2
05-09-2020 29.3 (14:40) 20 (00:00) 24.6 4.72 (14:00) 1.94 (16:20) 0 0 0 0 0
04-09-2020 28.7 (13:30) 18.7 (00:00) 23.7 5 (13:10) 2.22 (02:00) 0 0 0 0 0
03-09-2020 28.4 (15:30) 18.6 (00:00) 23.5 5 (13:50) 2.22 (14:10) 0 0 0 0 0
02-09-2020 27.3 (14:10) 16.9 (00:00) 22.1 10.28 (14:50) 4.17 (15:00) 0 0 0 0 0
01-09-2020 26.9 (12:10) 16.3 (00:00) 21.6 5.28 (13:30) 2.5 (22:30) 2.2 0 0 0 2.2
31-08-2020 26.7 (13:20) 13.8 (00:00) 20.3 9.17 (14:50) 4.44 (15:20) 0 0 0 0 0
30-08-2020 26.4 (16:00) 13.6 (00:00) 20 10.83 (20:10) 4.44 (19:50) 13.1 0 0.1 0 13
29-08-2020 23.9 (16:40) 15.5 (00:00) 19.7 10.83 (04:00) 5.28 (06:00) 19.4 7.1 8.4 1.9 2
28-08-2020 31.6 (15:40) 21 (00:00) 26.3 7.5 (23:10) 3.61 (23:10) 0.1 0 0 0 0.1
27-08-2020 31.4 (12:50) 22 (00:00) 26.7 7.22 (15:10) 2.78 (15:10) 0 0 0 0 0
26-08-2020 31.7 (12:30) 22 (00:00) 26.9 6.67 (17:20) 3.33 (17:30) 0 0 0 0 0
25-08-2020 31.9 (13:10) 20.2 (00:00) 26.1 11.39 (15:10) 4.44 (14:00) 0 0 0 0 0
24-08-2020 30.2 (12:10) 21.8 (00:00) 26 7.5 (14:40) 3.61 (14:40) 0.6 0.5 0.1 0 0
23-08-2020 30.2 (13:20) 21.2 (00:00) 25.7 8.33 (14:10) 3.89 (14:50) 0 0 0 0 0
22-08-2020 32.7 (12:50) 23.2 (00:00) 28 6.11 (17:30) 2.78 (16:00) 0 0 0 0 0
21-08-2020 32.6 (14:00) 22.2 (00:00) 27.4 5 (14:20) 2.22 (02:50) 0 0 0 0 0

Gráficas

Temp. máximas Temp. mínimas Temp. medias Precipitaciones Rachas de viento máximas Velocidades máximas media en intervalos de 10 minutos

Datos horarios

Fecha y hora oficial Temperatura (ºC) Velocidad del viento (km/h) Dirección del viento Racha (km/h) Dirección de racha Precipitación (mm) Presión (hPa) Tendencia (hPa) Humedad (%)
2020-09-19 23:00:00 21.8 7 Oeste 20 Sur 0 -- -- 70
2020-09-19 22:00:00 22.4 7 Oeste 18 Noroeste 0 -- -- 69
2020-09-19 21:00:00 21.8 2 Sudoeste 12 Oeste 0 -- -- 82
2020-09-19 20:00:00 22.8 0 Calma 11 Oeste 0 -- -- 80
2020-09-19 19:00:00 23.8 4 Sudoeste 17 Sur 0.1 -- -- 72
2020-09-19 18:00:00 23.5 5 Oeste 12 Sudoeste 0 -- -- 69
2020-09-19 17:00:00 22.3 4 Oeste 23 Sur 0.1 -- -- 63
2020-09-19 16:00:00 25.9 9 Sur 22 Sudeste 0 -- -- 60
2020-09-19 15:00:00 28.1 6 Sur 17 Sur 0 -- -- 49
2020-09-19 14:00:00 27.2 8 Sur 18 Nordeste 0 -- -- 52
2020-09-19 13:00:00 27.5 4 Sudeste 14 Sur 0 -- -- 49
2020-09-19 12:00:00 26.8 5 Sur 12 Sudeste 0 -- -- 52
2020-09-19 11:00:00 25.7 5 Sur 14 Sur 0 -- -- 54
2020-09-19 10:00:00 26.5 3 Nordeste 11 Sudeste 0 -- -- 60
2020-09-19 09:00:00 23.6 0 Calma 9 Norte 0 -- -- 69
2020-09-19 08:00:00 21.3 0 Calma 8 Sudoeste 0 -- -- 82
2020-09-19 07:00:00 20.7 0 Calma 8 Sudoeste 0 -- -- 83
2020-09-19 06:00:00 21.3 5 Sudoeste 8 Sudoeste 0 -- -- 84
2020-09-19 05:00:00 22.1 4 Sudoeste 8 Sudoeste 0 -- -- 83
2020-09-19 04:00:00 21.6 0 Calma 7 Norte 0 -- -- 90
2020-09-19 03:00:00 21.7 0 Calma 8 Norte 0 -- -- 90
2020-09-19 02:00:00 21.3 3 Norte 6 Norte 0 -- -- 88
2020-09-19 01:00:00 21.2 2 Nordeste 7 Norte 0 -- -- 88
2020-09-19 00:00:00 21.4 4 Norte 11 Nordeste 0 -- -- 85
2020-09-18 23:00:00 21.6 6 Norte 12 Norte 0 -- -- 85
2020-09-18 22:00:00 22 6 Norte 10 Norte 0 -- -- 77
2020-09-18 21:00:00 22.9 6 Norte 13 Norte 0 -- -- 64
2020-09-18 20:00:00 23.7 0 Calma 8 Nordeste 0 -- -- 62
2020-09-18 19:00:00 24.3 2 Este 8 Este 0 -- -- 50
2020-09-18 18:00:00 25.8 2 Sudeste 13 Nordeste 0 -- -- 40
2020-09-18 17:00:00 27.9 2 Este 13 Nordeste 0 -- -- 41
2020-09-18 16:00:00 23.2 4 Norte 21 Sudoeste 0 -- -- 59
2020-09-18 15:00:00 22.7 7 Sudoeste 23 Noroeste 0.5 -- -- 64
2020-09-18 14:00:00 24.7 4 Oeste 13 Sudoeste 0 -- -- 55
2020-09-18 13:00:00 25.5 5 Sur 11 Sudoeste 0 -- -- 57
2020-09-18 12:00:00 27.1 3 Sur 10 Sudoeste 0 -- -- 51
2020-09-18 11:00:00 25.1 0 Calma 6 Nordeste 0 -- -- 55
2020-09-18 10:00:00 23.6 3 Norte 8 Norte 0 -- -- 52
2020-09-18 09:00:00 22.1 2 Norte 8 Norte 0 -- -- 54
2020-09-18 08:00:00 20.9 0 Calma 8 Norte 0 -- -- 55
2020-09-18 07:00:00 21.1 4 Noroeste 9 Noroeste 0 -- -- 51
2020-09-18 06:00:00 19.8 4 Norte 10 Norte 0 -- -- 59
2020-09-18 05:00:00 20.5 6 Norte 12 Norte 0 -- -- 60
2020-09-18 04:00:00 20.6 4 Norte 7 Norte 0 -- -- 65
2020-09-18 03:00:00 21.9 0 Calma 5 Norte 0 -- -- 63
2020-09-18 02:00:00 22.6 0 Calma 5 Noroeste 0 -- -- 61
2020-09-18 01:00:00 23.2 0 Calma 8 Oeste 0 -- -- 70
2020-09-18 00:00:00 23.9 3 Oeste 11 Oeste 0 -- -- 73
2020-09-17 23:00:00 23.1 0 Calma 6 Norte 0 -- -- 73
2020-09-17 22:00:00 23.6 0 Calma 10 Sudoeste 0 -- -- 81
2020-09-17 21:00:00 24.1 0 Calma 11 Sudoeste 0 -- -- 80
2020-09-17 20:00:00 24.3 3 Sudoeste 17 Oeste 0 -- -- 78
2020-09-17 19:00:00 25.1 6 Sudoeste 13 Sudoeste 0 -- -- 75
2020-09-17 18:00:00 26.1 5 Sur 14 Sur 0 -- -- 53
2020-09-17 17:00:00 27 2 Sudeste 10 Sur 0 -- -- 50
2020-09-17 16:00:00 27.1 2 Sudeste 12 Este 0 -- -- 50
2020-09-17 15:00:00 28.1 4 Sur 13 Nordeste 0 -- -- 49
2020-09-17 14:00:00 27.8 3 Sudeste 12 Nordeste 0 -- -- 49
2020-09-17 13:00:00 29.3 2 Este 13 Sudoeste 0 -- -- 40
2020-09-17 12:00:00 27.9 4 Sur 9 Sur 0 -- -- 43
2020-09-17 11:00:00 27.7 0 Calma 7 Nordeste 0 -- -- 46
2020-09-17 10:00:00 26.7 0 Calma 5 Norte 0 -- -- 45
2020-09-17 09:00:00 23.5 2 Este 6 Este 0 -- -- 55
2020-09-17 08:00:00 21.2 0 Calma 6 Sur 0 -- -- 55
2020-09-17 07:00:00 20.6 0 Calma 9 Norte 0 -- -- 54
2020-09-17 06:00:00 21.9 5 Norte 10 Nordeste 0 -- -- 46
2020-09-17 05:00:00 21.2 3 Nordeste 9 Norte 0 -- -- 50
2020-09-17 04:00:00 21.8 5 Norte 11 Norte 0 -- -- 49
2020-09-17 03:00:00 20.6 3 Noroeste 11 Noroeste 0 -- -- 56
2020-09-17 02:00:00 21 2 Norte 8 Norte 0 -- -- 58
2020-09-17 01:00:00 21.3 3 Norte 6 Norte 0 -- -- 59
2020-09-17 00:00:00 22.6 0 Calma 11 Norte 0 -- -- 56
2020-09-16 23:00:00 21.8 3 Norte 8 Norte 0 -- -- 66
2020-09-16 22:00:00 22.4 3 Norte 8 Norte 0 -- -- 77
2020-09-16 21:00:00 23.1 0 Calma 4 Sudoeste 0 -- -- 82
2020-09-16 20:00:00 24.4 0 Calma 10 Sudoeste 0 -- -- 75
2020-09-16 19:00:00 25.3 6 Sudoeste 15 Sudoeste 0 -- -- 67
2020-09-16 18:00:00 27.4 6 Sudoeste 16 Sudoeste 0 -- -- 56
2020-09-16 17:00:00 27.5 7 Sur 16 Sur 0 -- -- 54
2020-09-16 16:00:00 28 5 Sur 13 Sudoeste 0 -- -- 51
2020-09-16 15:00:00 27.5 5 Sur 13 Sudeste 0 -- -- 54
2020-09-16 14:00:00 27.4 3 Sudeste 12 Nordeste 0 -- -- 54
2020-09-16 13:00:00 28 3 Sudeste 13 Nordeste 0 -- -- 55
2020-09-16 12:00:00 26.5 4 Este 12 Nordeste 0 -- -- 59
2020-09-16 11:00:00 26.9 0 Calma 9 Sudeste 0 -- -- 56
2020-09-16 10:00:00 25.9 0 Calma 7 Este 0 -- -- 62
2020-09-16 09:00:00 22 0 Calma 8 Norte 0 -- -- 75
2020-09-16 08:00:00 19.8 0 Calma 8 Norte 0 -- -- 83
2020-09-16 07:00:00 19.5 3 Norte 8 Norte 0 -- -- 88
2020-09-16 06:00:00 20.2 2 Norte 12 Norte 0 -- -- 87
2020-09-16 05:00:00 20.2 0 Calma 6 Oeste 0 -- -- 88
2020-09-16 04:00:00 20.4 0 Calma 8 Norte 0 -- -- 88
2020-09-16 03:00:00 20.7 3 Norte 8 Nordeste 0 -- -- 87
2020-09-16 02:00:00 20.7 0 Calma 6 Norte 0 -- -- 87
2020-09-16 01:00:00 21.3 0 Calma 6 Sudoeste 0 -- -- 88
2020-09-16 00:00:00 21.5 0 Calma 5 Sudoeste 0 -- -- 87
2020-09-15 23:00:00 22.5 0 Calma 6 Sudoeste 0 -- -- 87
2020-09-15 22:00:00 22.5 0 Calma 4 Sudoeste 0 -- -- 86
2020-09-15 21:00:00 23.3 0 Calma 9 Sudoeste 0 -- -- 84
2020-09-15 20:00:00 23.9 3 Sudoeste 13 Sudoeste 0 -- -- 80
2020-09-15 19:00:00 25.1 5 Sur 20 Sur 0 -- -- 68
2020-09-15 18:00:00 27 6 Sur 20 Sur 0 -- -- 62
2020-09-15 17:00:00 27.4 6 Sur 19 Sudoeste 0 -- -- 62
2020-09-15 16:00:00 26 9 Sur 19 Sudoeste 0 -- -- 65
2020-09-15 15:00:00 28 8 Sur 19 Sur 0 -- -- 57
2020-09-15 14:00:00 27.7 7 Sur 16 Sur 0 -- -- 55
2020-09-15 13:00:00 27.3 9 Sur 17 Sudoeste 0 -- -- 49
2020-09-15 12:00:00 28.1 6 Sudoeste 16 Oeste 0 -- -- 47
2020-09-15 11:00:00 26.5 6 Sudoeste 16 Sur 0 -- -- 46
2020-09-15 10:00:00 26.8 2 Sudeste 6 Sudeste 0 -- -- 45
2020-09-15 09:00:00 21.6 2 Norte 11 Norte 0 -- -- 60
2020-09-15 08:00:00 19.2 5 Norte 10 Norte 0 -- -- 63
2020-09-15 07:00:00 19.4 3 Norte 7 Norte 0 -- -- 60
2020-09-15 06:00:00 20.1 0 Calma 12 Sudoeste 0 -- -- 59
2020-09-15 05:00:00 23.3 4 Oeste 17 Oeste 0 -- -- 48
2020-09-15 04:00:00 23 5 Oeste 14 Oeste 0 -- -- 55
2020-09-15 03:00:00 20 3 Norte 9 Norte 0 -- -- 70
2020-09-15 02:00:00 19.6 4 Norte 9 Norte 0 -- -- 70
2020-09-15 01:00:00 19.2 4 Norte 10 Norte 0 -- -- 70
2020-09-15 00:00:00 19.5 4 Norte 9 Norte 0 -- -- 67
2020-09-14 23:00:00 19.9 4 Norte 8 Norte 0 -- -- 64
2020-09-14 22:00:00 20 3 Norte 6 Nordeste 0 -- -- 63
2020-09-14 21:00:00 21.2 2 Noroeste 6 Norte 0 -- -- 69
2020-09-14 20:00:00 22.6 0 Calma 10 Sur 0 -- -- 69
2020-09-14 19:00:00 25.8 4 Sur 10 Sur 0 -- -- 58
2020-09-14 18:00:00 26.9 6 Sur 12 Sur 0 -- -- 52
2020-09-14 17:00:00 27.5 5 Sur 13 Sur 0 -- -- 54
2020-09-14 16:00:00 27.9 4 Sur 17 Sur 0 -- -- 53
2020-09-14 15:00:00 27 4 Sudeste 14 Sur 0 -- -- 55
2020-09-14 14:00:00 28.1 3 Sudeste 13 Nordeste 0 -- -- 54
2020-09-14 13:00:00 27.9 3 Sudeste 14 Nordeste 0 -- -- 54
2020-09-14 12:00:00 27.6 4 Este 14 Nordeste 0 -- -- 47
2020-09-14 11:00:00 28 2 Sudeste 10 Nordeste 0 -- -- 45
2020-09-14 10:00:00 26.4 0 Calma 6 Nordeste 0 -- -- 60
2020-09-14 09:00:00 21.5 2 Nordeste 7 Norte 0 -- -- 72
2020-09-14 08:00:00 18.9 3 Norte 9 Norte 0 -- -- 77
2020-09-14 07:00:00 19.2 6 Norte 10 Noroeste 0 -- -- 74
2020-09-14 06:00:00 18.8 5 Norte 8 Norte 0 -- -- 73
2020-09-14 05:00:00 18.7 4 Norte 8 Norte 0 -- -- 74
2020-09-14 04:00:00 19.5 3 Norte 10 Norte 0 -- -- 71
2020-09-14 03:00:00 19.9 7 Norte 13 Norte 0 -- -- 73
2020-09-14 02:00:00 19.3 5 Norte 9 Norte 0 -- -- 79
2020-09-14 01:00:00 19.7 2 Noroeste 10 Norte 0 -- -- 78
2020-09-14 00:00:00 19.7 4 Norte 8 Norte 0 -- -- 73
2020-09-13 23:00:00 20.4 4 Norte 8 Norte 0 -- -- 68
2020-09-13 22:00:00 21.1 4 Norte 8 Norte 0 -- -- 67
2020-09-13 21:00:00 22 4 Norte 7 Norte 0 -- -- 62
2020-09-13 20:00:00 23.4 0 Calma 4 Nordeste 0 -- -- 52
2020-09-13 19:00:00 26.5 2 Sudeste 6 Sudeste 0 -- -- 42
2020-09-13 18:00:00 28.3 2 Este 10 Nordeste 0 -- -- 38
2020-09-13 17:00:00 28.2 3 Este 11 Sur 0 -- -- 41
2020-09-13 16:00:00 28.9 4 Sudeste 13 Este 0 -- -- 41
2020-09-13 15:00:00 29.1 6 Sur 15 Sur 0 -- -- 40
2020-09-13 14:00:00 29.7 3 Sudeste 14 Sur 0 -- -- 38
2020-09-13 13:00:00 31.1 3 Sudeste 13 Sudoeste 0 -- -- 33
2020-09-13 12:00:00 31.2 4 Sur 10 Nordeste 0 -- -- 35
2020-09-13 11:00:00 29.5 4 Sur 8 Sur 0 -- -- 39
2020-09-13 10:00:00 29.5 0 Calma 9 Norte 0 -- -- 40
2020-09-13 09:00:00 23.1 4 Norte 15 Norte 0 -- -- 55
2020-09-13 08:00:00 21.9 6 Norte 15 Nordeste 0 -- -- 53
2020-09-13 07:00:00 21.8 6 Norte 13 Norte 0 -- -- 54
2020-09-13 06:00:00 21.2 6 Norte 13 Norte 0 -- -- 56
2020-09-13 05:00:00 21.6 3 Noroeste 10 Norte 0 -- -- 57
2020-09-13 04:00:00 21.2 2 Norte 11 Noroeste 0 -- -- 54
2020-09-13 03:00:00 21.6 3 Noroeste 10 Noroeste 0 -- -- 53
2020-09-13 02:00:00 21.8 2 Noroeste 11 Noroeste 0 -- -- 51
2020-09-13 01:00:00 20.9 2 Norte 7 Noroeste 0 -- -- 55
2020-09-13 00:00:00 22.1 4 Norte 10 Norte 0 -- -- 51
2020-09-12 23:00:00 21.9 3 Noroeste 7 Norte 0 -- -- 50
2020-09-12 22:00:00 22.1 3 Norte 11 Norte 0 -- -- 48
2020-09-12 21:00:00 22.7 7 Norte 12 Norte 0 -- -- 48
2020-09-12 20:00:00 24.2 4 Norte 8 Sudoeste 0 -- -- 47
2020-09-12 19:00:00 27.5 3 Sur 10 Sudoeste 0 -- -- 35
2020-09-12 18:00:00 28.5 4 Sur 12 Sur 0 -- -- 33
2020-09-12 17:00:00 28.8 4 Sur 12 Sur 0 -- -- 34
2020-09-12 16:00:00 29.4 4 Sur 13 Nordeste 0 -- -- 32
2020-09-12 15:00:00 29.3 5 Sur 15 Nordeste 0 -- -- 41
2020-09-12 14:00:00 30.1 8 Sur 17 Sur 0 -- -- 29
2020-09-12 13:00:00 31.2 3 Sudeste 13 Nordeste 0 -- -- 30
2020-09-12 12:00:00 30.4 3 Este 10 Sur 0 -- -- 31
2020-09-12 11:00:00 29.6 3 Sur 7 Sur 0 -- -- 36
2020-09-12 10:00:00 28.7 0 Calma 12 Norte 0 -- -- 40
2020-09-12 09:00:00 22.4 7 Norte 12 Norte 0 -- -- 59
2020-09-12 08:00:00 20.2 4 Norte 13 Norte 0 -- -- 64
2020-09-12 07:00:00 20 5 Norte 10 Norte 0 -- -- 64
2020-09-12 06:00:00 19.2 3 Noroeste 7 Norte 0 -- -- 69
2020-09-12 05:00:00 19.4 0 Calma 9 Noroeste 0 -- -- 68
2020-09-12 04:00:00 19.5 3 Norte 9 Norte 0 -- -- 68
2020-09-12 03:00:00 20.5 5 Norte 9 Norte 0 -- -- 64
2020-09-12 02:00:00 19.1 0 Calma 6 Norte 0 -- -- 77
2020-09-12 01:00:00 19.4 3 Norte 7 Norte 0 -- -- 79
2020-09-12 00:00:00 19.5 2 Norte 7 Nordeste 0 -- -- 81
2020-09-11 23:00:00 19.8 0 Calma 5 Norte 0 -- -- 81
2020-09-11 22:00:00 20.6 0 Calma 13 Norte 0 -- -- 79
2020-09-11 21:00:00 21.2 0 Calma 5 Norte 0 -- -- 76
2020-09-11 20:00:00 22.8 0 Calma 5 Sur 0 -- -- 69
2020-09-11 19:00:00 24.1 4 Sur 7 Sudoeste 0 -- -- 59
2020-09-11 18:00:00 24.9 3 Sur 16 Sudoeste 0 -- -- 51
2020-09-11 17:00:00 27.4 5 Sur 16 Sudoeste 0 -- -- 55
2020-09-11 16:00:00 26.4 5 Sudeste 19 Sur 0 -- -- 39
2020-09-11 15:00:00 30.2 8 Sudoeste 16 Sur 0 -- -- 28
2020-09-11 14:00:00 29.6 5 Sur 13 Nordeste 0 -- -- 30
2020-09-11 13:00:00 29.9 4 Nordeste 14 Sur 0 -- -- 36
2020-09-11 12:00:00 28.9 4 Sudeste 14 Sur 0 -- -- 34
2020-09-11 11:00:00 27.7 0 Calma 5 Sudeste 0 -- -- 38
2020-09-11 10:00:00 23.4 0 Calma 8 Norte 0 -- -- 63
2020-09-11 09:00:00 20.7 0 Calma 10 Nordeste 0 -- -- 66
2020-09-11 08:00:00 19.3 3 Nordeste 9 Norte 0 -- -- 69
2020-09-11 07:00:00 19 0 Calma 5 Norte 0 -- -- 73
2020-09-11 06:00:00 20.5 4 Noroeste 12 Noroeste 0 -- -- 60
2020-09-11 05:00:00 18.6 2 Noroeste 12 Norte 0 -- -- 76
2020-09-11 04:00:00 18.8 4 Norte 11 Norte 0 -- -- 78
2020-09-11 03:00:00 19.7 7 Norte 15 Norte 0 -- -- 76
2020-09-11 02:00:00 19.1 4 Norte 14 Norte 0.2 -- -- 85
2020-09-11 01:00:00 20.5 2 Nordeste 12 Norte 0 -- -- 72
2020-09-11 00:00:00 19.7 0 Calma 12 Norte 0 -- -- 75
2020-09-10 23:00:00 20.4 4 Noroeste 13 Sudoeste 0 -- -- 75
2020-09-10 22:00:00 21.2 4 Oeste 13 Sudoeste 0 -- -- 71
2020-09-10 21:00:00 20.9 4 Oeste 12 Sudoeste 0 -- -- 78
2020-09-10 20:00:00 20.9 3 Oeste 8 Noroeste 0 -- -- 84
2020-09-10 19:00:00 22.6 2 Noroeste 8 Norte 0 -- -- 70
2020-09-10 18:00:00 21.5 0 Calma 14 Norte 0 -- -- 78
2020-09-10 17:00:00 20.5 8 Norte 14 Noroeste 0.6 -- -- 84
2020-09-10 16:00:00 18.5 7 Norte 33 Noroeste 7.4 -- -- 87
2020-09-10 15:00:00 27.4 8 Sudoeste 23 Sur 0 -- -- 46
2020-09-10 14:00:00 27.3 9 Sur 19 Sudoeste 0 -- -- 41
2020-09-10 13:00:00 27.4 5 Sur 21 Sudeste 0 -- -- 38
2020-09-10 12:00:00 26.2 6 Este 18 Nordeste 0 -- -- 44
2020-09-10 11:00:00 26.4 2 Este 10 Nordeste 0 -- -- 39
2020-09-10 10:00:00 25.2 0 Calma 12 Norte 0 -- -- 47
2020-09-10 09:00:00 19.6 4 Norte 14 Norte 0 -- -- 73
2020-09-10 08:00:00 17.9 9 Norte 17 Norte 0 -- -- 80
2020-09-10 07:00:00 17.4 9 Norte 15 Norte 0 -- -- 85
2020-09-10 06:00:00 17.9 5 Norte 13 Norte 0 -- -- 85
2020-09-10 05:00:00 17.6 3 Norte 11 Norte 0 -- -- 87
2020-09-10 04:00:00 17.5 2 Noroeste 6 Sudoeste 0 -- -- 88
2020-09-10 03:00:00 17.7 0 Calma 12 Norte 0 -- -- 88
2020-09-10 02:00:00 17.9 5 Norte 12 Norte 0 -- -- 88
2020-09-10 01:00:00 18.3 7 Norte 12 Norte 0 -- -- 87
2020-09-10 00:00:00 18.6 7 Norte 12 Norte 0 -- -- 87
2020-09-09 23:00:00 18.8 3 Norte 10 Sudoeste 0 -- -- 87
2020-09-09 22:00:00 20 6 Oeste 16 Sudoeste 0 -- -- 80
2020-09-09 21:00:00 20 6 Norte 13 Norte 0 -- -- 86
2020-09-09 20:00:00 20.7 3 Noroeste 14 Este 0 -- -- 82
2020-09-09 19:00:00 21.8 4 Sudeste 16 Nordeste 0 -- -- 71
2020-09-09 18:00:00 23.2 3 Sudeste 17 Nordeste 0 -- -- 57
2020-09-09 17:00:00 25.4 4 Este -- -- -- -- -- 46
2020-09-09 16:00:00 24.5 4 Sudeste 24 Nordeste 0 -- -- 56
2020-09-09 15:00:00 24.3 4 Este 22 Nordeste 0 -- -- 54
2020-09-09 14:00:00 26.2 4 Este 19 Norte 0 -- -- 48
2020-09-09 13:00:00 23.6 4 Nordeste 16 Norte 0 -- -- 51
2020-09-09 12:00:00 23.4 4 Norte 17 Nordeste 0 -- -- 55
2020-09-09 11:00:00 23.2 8 Norte 26 Norte 0 -- -- 59
2020-09-09 10:00:00 21.3 9 Norte 23 Nordeste 0 -- -- 64
2020-09-09 09:00:00 20.7 9 Nordeste 24 Norte 0 -- -- 65
2020-09-09 08:00:00 20.2 6 Norte 18 Nordeste 0 -- -- 69
2020-09-09 07:00:00 20 7 Norte 18 Nordeste 0 -- -- 69
2020-09-09 06:00:00 20.3 7 Norte 24 Norte 0 -- -- 67
2020-09-09 05:00:00 20 8 Norte 24 Norte 0 -- -- 69
2020-09-09 04:00:00 18.8 3 Nordeste 21 Norte 0.2 -- -- 83
2020-09-09 03:00:00 18.6 10 Norte 24 Nordeste 0.2 -- -- 81
2020-09-09 02:00:00 22 2 Nordeste 16 Nordeste 0 -- -- 50
2020-09-09 01:00:00 22.4 5 Norte 19 Nordeste 0 -- -- 47
2020-09-09 00:00:00 21.8 4 Nordeste 14 Nordeste 0 -- -- 46
2020-09-08 23:00:00 21.9 2 Nordeste 18 Nordeste 0 -- -- 44
2020-09-08 22:00:00 21.6 8 Norte 21 Norte 0 -- -- 42
2020-09-08 21:00:00 22.1 8 Norte 21 Norte 0 -- -- 42
2020-09-08 20:00:00 22.1 8 Norte 23 Norte 0 -- -- 43
2020-09-08 19:00:00 21.6 13 Norte 40 Norte 0 -- -- 46
2020-09-08 18:00:00 21.5 14 Norte 32 Norte 0 -- -- 45
2020-09-08 17:00:00 22.6 10 Norte 32 Norte 0 -- -- 41
2020-09-08 16:00:00 24.1 9 Nordeste 30 Norte 0 -- -- 33
2020-09-08 15:00:00 25.9 4 Norte 28 Nordeste 0 -- -- 30
2020-09-08 14:00:00 26.1 4 Nordeste 31 Nordeste 0 -- -- 30
2020-09-08 13:00:00 26.2 8 Norte 31 Norte 0 -- -- 29
2020-09-08 12:00:00 25.2 9 Norte 36 Norte 0 -- -- 29
2020-09-08 11:00:00 22.8 11 Norte 32 Norte 0 -- -- 31
2020-09-08 10:00:00 22.5 15 Norte 39 Nordeste 0 -- -- 31
2020-09-08 09:00:00 21.7 12 Norte 27 Norte 0 -- -- 35
2020-09-08 08:00:00 18.1 4 Norte 12 Norte 0 -- -- 48
2020-09-08 07:00:00 15.8 4 Norte 13 Norte 0 -- -- 60
2020-09-08 06:00:00 16.1 5 Norte 17 Norte 0 -- -- 57
2020-09-08 05:00:00 15.9 6 Norte 14 Norte 0 -- -- 57
2020-09-08 04:00:00 14.8 6 Norte 15 Noroeste 0 -- -- 65
2020-09-08 03:00:00 14.9 8 Norte 18 Noroeste 0 -- -- 69
2020-09-08 02:00:00 15.3 8 Norte 15 Noroeste 0 -- -- 71
2020-09-08 01:00:00 15.6 6 Norte 11 Norte 0 -- -- 73
2020-09-08 00:00:00 15.3 3 Oeste 15 Sudoeste 0 -- -- 79
2020-09-07 23:00:00 15.9 8 Norte 17 Norte 0 -- -- 77
2020-09-07 22:00:00 15.7 7 Norte 16 Norte 0 -- -- 79
2020-09-07 21:00:00 16 4 Oeste 15 Noroeste 0 -- -- 84
2020-09-07 20:00:00 16.7 8 Norte 13 Oeste 0.2 -- -- 83
2020-09-07 19:00:00 17.1 3 Oeste 15 Sudoeste 1.2 -- -- 87
2020-09-07 18:00:00 20.1 3 Noroeste 13 Sudoeste 0.1 -- -- 70
2020-09-07 17:00:00 23.6 5 Sur 15 Sur 0 -- -- 48
2020-09-07 16:00:00 22.2 3 Sudeste 17 Sur 0 -- -- 48
2020-09-07 15:00:00 24.6 4 Sudeste 17 Sur 0 -- -- 45
2020-09-07 14:00:00 23.3 3 Sur 14 Sur 0 -- -- 46
2020-09-07 13:00:00 23.1 0 Calma 9 Sur 0 -- -- 41
2020-09-07 12:00:00 22.4 4 Sudeste 12 Norte 0 -- -- 47
2020-09-07 11:00:00 20.1 0 Calma 7 Sur 0 -- -- 64
2020-09-07 10:00:00 21.1 2 Nordeste 7 Norte 0 -- -- 60
2020-09-07 09:00:00 17.1 3 Norte 10 Norte 0 -- -- 87
2020-09-07 08:00:00 16.3 4 Norte 9 Norte 0 -- -- 87
2020-09-07 07:00:00 16.3 4 Noroeste 11 Noroeste 0 -- -- 84
2020-09-07 06:00:00 16.2 0 Calma 9 Norte 0 -- -- 90
2020-09-07 05:00:00 16.5 0 Calma 8 Este 0 -- -- 90
2020-09-07 04:00:00 17 0 Calma 7 Norte 0.1 -- -- 91
2020-09-07 03:00:00 17.8 0 Calma 8 Nordeste 2.5 -- -- 91
2020-09-07 02:00:00 18.2 0 Calma 19 Norte 2.6 -- -- 91
2020-09-07 01:00:00 18.5 9 Norte 18 Noroeste 0.2 -- -- 88
2020-09-07 00:00:00 18.6 9 Norte 16 Noroeste 0.1 -- -- 88
2020-09-06 23:00:00 18.7 5 Norte 16 Nordeste 2.3 -- -- 90
2020-09-06 22:00:00 19.4 8 Norte 20 Norte 0.8 -- -- 86
2020-09-06 21:00:00 23.3 2 Sudeste 16 Sudeste 0 -- -- 69
2020-09-06 20:00:00 23.4 3 Sur 13 Sudeste 0 -- -- 70
2020-09-06 19:00:00 24.3 4 Sudeste 20 Sudoeste 0 -- -- 68
2020-09-06 18:00:00 24.1 7 Sur 19 Sur 0 -- -- 67
2020-09-06 17:00:00 25 8 Sur 24 Sur 0 -- -- 63
2020-09-06 16:00:00 25.4 9 Sur 25 Sur 0 -- -- 59
2020-09-06 15:00:00 26.4 8 Sur 20 Sur 0 -- -- 60
2020-09-06 14:00:00 27.8 7 Sur 16 Este 0 -- -- 53
2020-09-06 13:00:00 28.6 5 Sur 17 Nordeste 0 -- -- 49
2020-09-06 12:00:00 27.8 3 Sudeste 18 Sur 0 -- -- 47
2020-09-06 11:00:00 27 4 Sudeste 14 Sudeste 0 -- -- 48
2020-09-06 10:00:00 26.4 2 Nordeste 11 Este 0 -- -- 57
2020-09-06 09:00:00 22.3 4 Norte 9 Norte 0 -- -- 73
2020-09-06 08:00:00 19.7 6 Norte 11 Norte 0 -- -- 79
2020-09-06 07:00:00 19.5 4 Norte 8 Norte 0 -- -- 81
2020-09-06 06:00:00 19.8 3 Norte 6 Norte 0 -- -- 81
2020-09-06 05:00:00 20.2 4 Norte 9 Norte 0 -- -- 78
2020-09-06 04:00:00 20.5 3 Norte 6 Norte 0 -- -- 73
2020-09-06 03:00:00 20.1 0 Calma 5 Norte 0 -- -- 71
2020-09-06 02:00:00 20.2 3 Norte 6 Norte 0 -- -- 74
2020-09-06 01:00:00 20.8 3 Norte 8 Norte 0 -- -- 80
2020-09-06 00:00:00 21.1 0 Calma 8 Oeste 0 -- -- 78
2020-09-05 23:00:00 22.8 4 Sudoeste 10 Oeste 0 -- -- 70
2020-09-05 22:00:00 22.5 0 Calma 7 Sudoeste 0 -- -- 73
2020-09-05 21:00:00 23.1 2 Oeste 9 Sudoeste 0 -- -- 74
2020-09-05 20:00:00 23.8 2 Sur 14 Sur 0 -- -- 68
2020-09-05 19:00:00 25.4 6 Sur 13 Sur 0 -- -- 56
2020-09-05 18:00:00 25.3 5 Sur 11 Sur 0 -- -- 55
2020-09-05 17:00:00 25.7 3 Sur 14 Sur 0 -- -- 54
2020-09-05 16:00:00 26.9 5 Sur 16 Sur 0 -- -- 50
2020-09-05 15:00:00 27.2 6 Sur 15 Norte 0 -- -- 50
2020-09-05 14:00:00 28.1 6 Sur 17 Sur 0 -- -- 51
2020-09-05 13:00:00 27.3 4 Sudeste 14 Sudeste 0 -- -- 50
2020-09-05 12:00:00 26.9 6 Sur 14 Sur 0 -- -- 49
2020-09-05 11:00:00 28.1 5 Sur 14 Sur 0 -- -- 47
2020-09-05 10:00:00 26.7 0 Calma 11 Norte 0 -- -- 51
2020-09-05 09:00:00 21.3 6 Norte 13 Norte 0 -- -- 78
2020-09-05 08:00:00 20.7 6 Norte 11 Norte 0 -- -- 81
2020-09-05 07:00:00 20.1 4 Norte 8 Norte 0 -- -- 84
2020-09-05 06:00:00 20.7 5 Norte 11 Norte 0 -- -- 83
2020-09-05 05:00:00 20.8 3 Noroeste 8 Norte 0 -- -- 85
2020-09-05 04:00:00 21.8 2 Norte 7 Norte 0 -- -- 82
2020-09-05 03:00:00 21.4 3 Norte 6 Norte 0 -- -- 84
2020-09-05 02:00:00 21.7 3 Norte 6 Nordeste 0 -- -- 83
2020-09-05 01:00:00 21.1 3 Norte 7 Norte 0 -- -- 84
2020-09-05 00:00:00 21.5 4 Norte 10 Sudoeste 0 -- -- 81
2020-09-04 23:00:00 21.7 4 Sudoeste 8 Noroeste 0 -- -- 82
2020-09-04 22:00:00 21.5 3 Noroeste 7 Norte 0 -- -- 82
2020-09-04 21:00:00 22.4 3 Norte 5 Norte 0 -- -- 77
2020-09-04 20:00:00 23.4 2 Sur 7 Sur 0 -- -- 70
2020-09-04 19:00:00 25.1 4 Sur 10 Sur 0 -- -- 64
2020-09-04 18:00:00 26.1 3 Sudeste 13 Sur 0 -- -- 57
2020-09-04 17:00:00 26.7 5 Sur 15 Sur 0 -- -- 54
2020-09-04 16:00:00 27.7 5 Sur 16 Sudeste 0 -- -- 54
2020-09-04 15:00:00 27.5 4 Este 15 Nordeste 0 -- -- 53
2020-09-04 14:00:00 27.4 3 Este 18 Nordeste 0 -- -- 53
2020-09-04 13:00:00 27.8 3 Este 15 Sur 0 -- -- 53
2020-09-04 12:00:00 27.7 4 Sudeste 15 Norte 0 -- -- 52
2020-09-04 11:00:00 27.5 3 Sudeste 13 Sur 0 -- -- 49
2020-09-04 10:00:00 27.1 3 Sur 8 Sudeste 0 -- -- 50
2020-09-04 09:00:00 22.3 4 Norte 13 Norte 0 -- -- 68
2020-09-04 08:00:00 19.6 6 Norte 14 Norte 0 -- -- 80
2020-09-04 07:00:00 18.9 7 Norte 12 Norte 0 -- -- 79
2020-09-04 06:00:00 18.9 5 Norte 9 Norte 0 -- -- 77
2020-09-04 05:00:00 19.6 0 Calma 9 Norte 0 -- -- 74
2020-09-04 04:00:00 20.3 5 Norte 9 Noroeste 0 -- -- 72
2020-09-04 03:00:00 20.6 2 Oeste 12 Norte 0 -- -- 72
2020-09-04 02:00:00 21.4 8 Norte 13 Norte 0 -- -- 72
2020-09-04 01:00:00 20.3 2 Noroeste 8 Noroeste 0 -- -- 83
2020-09-04 00:00:00 20.4 3 Norte 7 Nordeste 0 -- -- 83
2020-09-03 23:00:00 20.8 4 Norte 10 Norte 0 -- -- 78
2020-09-03 22:00:00 21 4 Norte 7 Norte 0 -- -- 74
2020-09-03 21:00:00 22 0 Calma 7 Noroeste 0 -- -- 69
2020-09-03 20:00:00 23.1 4 Sudoeste 13 Sur 0 -- -- 60
2020-09-03 19:00:00 24.8 6 Sur 16 Sur 0 -- -- 49
2020-09-03 18:00:00 25.5 7 Sur 16 Sudeste 0 -- -- 46
2020-09-03 17:00:00 25.5 6 Sur 17 Sur 0 -- -- 44
2020-09-03 16:00:00 27.6 5 Sur 15 Nordeste 0 -- -- 39
2020-09-03 15:00:00 28 5 Sudeste 17 Sur 0 -- -- 39
2020-09-03 14:00:00 27.7 4 Sudeste 18 Nordeste 0 -- -- 40
2020-09-03 13:00:00 26.9 4 Sudeste 15 Nordeste 0 -- -- 41
2020-09-03 12:00:00 27.2 3 Sudeste 17 Sur 0 -- -- 40
2020-09-03 11:00:00 28 3 Sudeste 10 Este 0 -- -- 40
2020-09-03 10:00:00 24.2 0 Calma 7 Este 0 -- -- 53
2020-09-03 09:00:00 21.5 5 Norte 10 Norte 0 -- -- 70
2020-09-03 08:00:00 18.8 4 Noroeste 10 Noroeste 0 -- -- 77
2020-09-03 07:00:00 19 5 Norte 11 Norte 0 -- -- 76
2020-09-03 06:00:00 19.3 4 Norte 9 Norte 0 -- -- 78
2020-09-03 05:00:00 19.3 2 Norte 7 Norte 0 -- -- 79
2020-09-03 04:00:00 20.2 0 Calma 9 Sudoeste 0 -- -- 73
2020-09-03 03:00:00 20.9 4 Noroeste 13 Sudoeste 0 -- -- 67
2020-09-03 02:00:00 20.8 6 Norte 9 Norte 0 -- -- 68
2020-09-03 01:00:00 20.5 5 Sudoeste 13 Noroeste 0 -- -- 68
2020-09-03 00:00:00 20.5 3 Oeste 10 Noroeste 0 -- -- 67
2020-09-02 23:00:00 22.2 3 Oeste 9 Norte 0 -- -- 60
2020-09-02 22:00:00 23.1 2 Oeste 13 Sur 0 -- -- 57
2020-09-02 21:00:00 23.2 4 Sudoeste 15 Sudoeste 0 -- -- 55
2020-09-02 20:00:00 23.4 6 Sur 21 Sur 0 -- -- 54
2020-09-02 19:00:00 23.7 8 Sur 25 Sur 0 -- -- 52
2020-09-02 18:00:00 24.1 12 Sur 29 Sudoeste 0 -- -- 50
2020-09-02 17:00:00 23.9 12 Sur 33 Sur 0 -- -- 49
2020-09-02 16:00:00 25.9 13 Sur 30 Sur 0 -- -- 44
2020-09-02 15:00:00 25.8 15 Sur 37 Sudoeste 0 -- -- 40
2020-09-02 14:00:00 25.7 12 Sur 25 Sudoeste 0 -- -- 43
2020-09-02 13:00:00 26.3 9 Sudoeste 25 Sudoeste 0 -- -- 40
2020-09-02 12:00:00 24.8 9 Sudoeste 23 Sur 0 -- -- 43
2020-09-02 11:00:00 26.1 4 Sur 18 Sur 0 -- -- 39
2020-09-02 10:00:00 24.6 4 Sudoeste 12 Noroeste 0 -- -- 42
2020-09-02 09:00:00 21.3 3 Oeste 8 Oeste 0 -- -- 59
2020-09-02 08:00:00 17.8 3 Nordeste 10 Norte 0 -- -- 75
2020-09-02 07:00:00 17.7 4 Norte 10 Norte 0 -- -- 72
2020-09-02 06:00:00 17.9 4 Norte 10 Norte 0 -- -- 79
2020-09-02 05:00:00 17.5 4 Norte 10 Norte 0 -- -- 79
2020-09-02 04:00:00 17.9 4 Norte 8 Norte 0 -- -- 65
2020-09-02 03:00:00 17.9 5 Norte 8 Norte 0 -- -- 66
2020-09-02 02:00:00 17.5 2 Norte 9 Norte 0 -- -- 78
2020-09-02 01:00:00 17.5 5 Norte 10 Sudoeste 0 -- -- 79
2020-09-02 00:00:00 17.7 0 Calma 9 Noroeste 0 -- -- 89
2020-09-01 23:00:00 17.9 2 Este 19 Norte 2.2 -- -- 85
2020-09-01 22:00:00 21.6 2 Norte 9 Norte 0 -- -- 69
2020-09-01 21:00:00 21.5 2 Norte 6 Norte 0 -- -- 69
2020-09-01 20:00:00 22.7 3 Sur 6 Sur 0 -- -- 59
2020-09-01 19:00:00 23.5 2 Sur 12 Sur 0 -- -- 56
2020-09-01 18:00:00 24.2 4 Sur 14 Sudeste 0 -- -- 52
2020-09-01 17:00:00 24 4 Sur 12 Sur 0 -- -- 55
2020-09-01 16:00:00 23.9 2 Sudeste 14 Sudeste 0 -- -- 54
2020-09-01 15:00:00 24.8 4 Sudeste 17 Sudeste 0 -- -- 51
2020-09-01 14:00:00 25.1 4 Sudeste 19 Sudeste 0 -- -- 49
2020-09-01 13:00:00 25.2 3 Sudeste 17 Nordeste 0 -- -- 46
2020-09-01 12:00:00 25.1 4 Este 17 Sudeste 0 -- -- 44
2020-09-01 11:00:00 25.9 3 Este 17 Este 0 -- -- 39
2020-09-01 10:00:00 24.1 0 Calma 9 Sur 0 -- -- 45
2020-09-01 09:00:00 19.6 2 Norte 10 Norte 0 -- -- 68
2020-09-01 08:00:00 16.9 6 Norte 10 Noroeste 0 -- -- 78
2020-09-01 07:00:00 16.7 5 Norte 12 Norte 0 -- -- 77
2020-09-01 06:00:00 16.8 6 Norte 13 Norte 0 -- -- 74
2020-09-01 05:00:00 17.1 7 Norte 15 Norte 0 -- -- 70
2020-09-01 04:00:00 17.5 8 Norte 14 Nordeste 0 -- -- 68
2020-09-01 03:00:00 18.3 4 Noroeste 10 Noroeste 0 -- -- 64
2020-09-01 02:00:00 18.6 4 Norte 12 Norte 0 -- -- 61
2020-09-01 01:00:00 19 6 Norte 12 Norte 0 -- -- 60
2020-09-01 00:00:00 19.6 6 Norte 11 Norte 0 -- -- 60
2020-08-31 23:00:00 18.3 6 Norte 14 Norte 0 -- -- 69
2020-08-31 22:00:00 18.6 6 Norte 11 Norte 0 -- -- 69
2020-08-31 21:00:00 19.7 5 Norte 10 Sudoeste 0 -- -- 61
2020-08-31 20:00:00 22.4 5 Sur 18 Sudoeste 0 -- -- 46
2020-08-31 19:00:00 24 7 Sur 23 Sur 0 -- -- 40
2020-08-31 18:00:00 24.4 11 Sudoeste 32 Sur 0 -- -- 39
2020-08-31 17:00:00 25.5 10 Sudoeste 32 Sudoeste 0 -- -- 39
2020-08-31 16:00:00 25.3 14 Sur 33 Sudoeste 0 -- -- 42
2020-08-31 15:00:00 25.3 13 Sur 33 Sudoeste 0 -- -- 40
2020-08-31 14:00:00 24.2 14 Sur 28 Sudoeste 0 -- -- 38
2020-08-31 13:00:00 25.3 10 Sur 23 Sur 0 -- -- 33
2020-08-31 12:00:00 24.7 6 Oeste 20 Sudoeste 0 -- -- 31
2020-08-31 11:00:00 24.8 6 Sur 15 Sur 0 -- -- 35
2020-08-31 10:00:00 22.1 2 Sudeste 11 Nordeste 0 -- -- 45
2020-08-31 09:00:00 17.4 3 Norte 25 Norte 0 -- -- 65
2020-08-31 08:00:00 15.7 6 Norte 17 Sudoeste 0 -- -- 66
2020-08-31 07:00:00 15.9 7 Sudoeste 16 Sudoeste 0 -- -- 64
2020-08-31 06:00:00 14 6 Norte 14 Norte 0 -- -- 83
2020-08-31 05:00:00 14.4 8 Norte 16 Norte 0 -- -- 80
2020-08-31 04:00:00 14.4 9 Norte 18 Norte 0 -- -- 84
2020-08-31 03:00:00 14.8 5 Norte 14 Norte 0 -- -- 84
2020-08-31 02:00:00 15.2 5 Norte 16 Norte 0 -- -- 86
2020-08-31 01:00:00 15.5 3 Noroeste 15 Norte 0 -- -- 85
2020-08-31 00:00:00 16.7 12 Sudoeste 25 Sudoeste 0.3 -- -- 74
2020-08-30 23:00:00 15.3 9 Norte 17 Noroeste 0.9 -- -- 90
2020-08-30 22:00:00 15.6 6 Noroeste 20 Noroeste 0.4 -- -- 84
2020-08-30 21:00:00 15.4 13 Norte 39 Norte 11.4 -- -- 89
2020-08-30 20:00:00 16.9 13 Norte 30 Norte 0 -- -- 67
2020-08-30 19:00:00 21.9 7 Sudeste 21 Sur 0 -- -- 55
2020-08-30 18:00:00 23.8 8 Sur 22 Sur 0 -- -- 49
2020-08-30 17:00:00 24 9 Sur 23 Sur 0 -- -- 44
2020-08-30 16:00:00 25 8 Sur 23 Sur 0 -- -- 43
2020-08-30 15:00:00 24.4 9 Sur 19 Sudoeste 0 -- -- 44
2020-08-30 14:00:00 25 7 Sur 21 Sur 0 -- -- 38
2020-08-30 13:00:00 26.2 6 Sur 17 Sur 0 -- -- 37
2020-08-30 12:00:00 24.2 6 Sur 18 Sur 0 -- -- 40
2020-08-30 11:00:00 22.1 3 Oeste 15 Sudoeste 0.1 -- -- 39
2020-08-30 10:00:00 22.2 3 Oeste 12 Noroeste 0 -- -- 41
2020-08-30 09:00:00 17 5 Norte 11 Noroeste 0 -- -- 65
2020-08-30 08:00:00 14.6 5 Norte 15 Norte 0 -- -- 69
2020-08-30 07:00:00 13.6 6 Norte 16 Noroeste 0 -- -- 74
2020-08-30 06:00:00 14 9 Norte 17 Norte 0 -- -- 75
2020-08-30 05:00:00 14.4 6 Norte 15 Norte 0 -- -- 76
2020-08-30 04:00:00 15.2 6 Norte 28 Oeste 0 -- -- 75
2020-08-30 03:00:00 15.8 7 Norte 28 Noroeste 0 -- -- 77
2020-08-30 02:00:00 18 10 Oeste 26 Sudoeste 0 -- -- 63
2020-08-30 01:00:00 16.3 8 Norte 15 Norte 0 -- -- 82
2020-08-30 00:00:00 15.7 5 Norte 13 Norte 0 -- -- 87
2020-08-29 23:00:00 15.6 6 Norte 12 Norte 0 -- -- 88
2020-08-29 22:00:00 16 6 Norte 12 Norte 0 -- -- 88
2020-08-29 21:00:00 16.5 2 Oeste 12 Norte 0 -- -- 87
2020-08-29 20:00:00 18.2 3 Noroeste 12 Norte 0.1 -- -- 90
2020-08-29 19:00:00 18.2 3 Oeste 8 Sudoeste 1.9 -- -- 89
2020-08-29 18:00:00 18.9 3 Sur 11 Sur 0.5 -- -- 73
2020-08-29 17:00:00 23 0 Calma 11 Nordeste 0 -- -- 49
2020-08-29 16:00:00 21.3 3 Sudeste 11 Sur 0 -- -- 60
2020-08-29 15:00:00 21.9 2 Este 8 Norte 0 -- -- 66
2020-08-29 14:00:00 19 4 Oeste 16 Sudoeste 0.9 -- -- 76
2020-08-29 13:00:00 17.5 9 Oeste 28 Norte 0.5 -- -- 72
2020-08-29 12:00:00 19.1 5 Norte 11 Noroeste 0 -- -- 61
2020-08-29 11:00:00 18.2 2 Sudoeste 8 Nordeste 0 -- -- 83
2020-08-29 10:00:00 17.5 5 Noroeste 27 Sudoeste 0.1 -- -- 78
2020-08-29 09:00:00 17.2 8 Norte 20 Sudoeste 0 -- -- 80
2020-08-29 08:00:00 16.7 2 Norte 15 Oeste 0.3 -- -- 89
2020-08-29 07:00:00 16.8 6 Norte 30 Norte 8 -- -- 89
2020-08-29 06:00:00 17.1 19 Norte 34 Noroeste 1.5 -- -- 81
2020-08-29 05:00:00 16.6 16 Norte 36 Norte 0.6 -- -- 79
2020-08-29 04:00:00 16.9 15 Norte 39 Noroeste 1.5 -- -- 82
2020-08-29 03:00:00 17.8 12 Norte 21 Norte 1.8 -- -- 90
2020-08-29 02:00:00 19 8 Norte 18 Norte 1.7 -- -- 87
2020-08-29 01:00:00 22.4 9 Norte 29 Noroeste 0 -- -- 53
2020-08-29 00:00:00 22 10 Norte 27 Norte 0.1 -- -- 56
2020-08-28 23:00:00 21.1 12 Norte 25 Noroeste 0 -- -- 64
2020-08-28 22:00:00 23.1 10 Norte 22 Norte 0 -- -- 55
2020-08-28 21:00:00 24.5 2 Nordeste 22 Este 0 -- -- 57
2020-08-28 20:00:00 24.6 4 Este 22 Sudeste 0 -- -- 64
2020-08-28 19:00:00 25.8 5 Este 27 Sudeste 0 -- -- 66
2020-08-28 18:00:00 27.9 4 Este 16 Sur 0 -- -- 57
2020-08-28 17:00:00 28.3 9 Sur 18 Sur 0 -- -- 54
2020-08-28 16:00:00 29.8 8 Sur 19 Sudeste 0 -- -- 49
2020-08-28 15:00:00 28.1 8 Sur 21 Sur 0 -- -- 54
2020-08-28 14:00:00 29.3 9 Sur 19 Sudoeste 0 -- -- 51
2020-08-28 13:00:00 30.6 6 Sur 19 Sur 0 -- -- 51
2020-08-28 12:00:00 29.8 7 Sur 17 Sudeste 0 -- -- 50
2020-08-28 11:00:00 29.3 7 Sur 16 Sudoeste 0 -- -- 50
2020-08-28 10:00:00 28.9 4 Sudeste 10 Sudeste 0 -- -- 57
2020-08-28 09:00:00 25.6 4 Norte 12 Norte 0 -- -- 71
2020-08-28 08:00:00 22.6 5 Norte 9 Nordeste 0 -- -- 87
2020-08-28 07:00:00 22.2 5 Norte 9 Norte 0 -- -- 87
2020-08-28 06:00:00 22.4 5 Norte 9 Norte 0 -- -- 87
2020-08-28 05:00:00 22.3 5 Norte 9 Norte 0 -- -- 88
2020-08-28 04:00:00 22.9 0 Calma 7 Sudoeste 0 -- -- 87
2020-08-28 03:00:00 23.2 3 Noroeste 9 Norte 0 -- -- 86
2020-08-28 02:00:00 23.7 4 Norte 9 Norte 0 -- -- 84
2020-08-28 01:00:00 24.2 3 Norte 7 Norte 0 -- -- 83
2020-08-28 00:00:00 25.2 3 Norte 9 Noroeste 0 -- -- 78
2020-08-27 23:00:00 26.2 4 Sur 10 Sudoeste 0 -- -- 76
2020-08-27 22:00:00 26.1 4 Sur 13 Sudoeste 0 -- -- 74
2020-08-27 21:00:00 26.3 6 Sur 14 Sur 0 -- -- 72
2020-08-27 20:00:00 26.6 5 Sur 18 Sur 0 -- -- 69
2020-08-27 19:00:00 26.8 8 Sur 17 Sudoeste 0 -- -- 69
2020-08-27 18:00:00 27.9 7 Sur 20 Sur 0 -- -- 61
2020-08-27 17:00:00 29.4 7 Sur 24 Sur 0 -- -- 52
2020-08-27 16:00:00 29.1 9 Sur 26 Sur 0 -- -- 54
2020-08-27 15:00:00 29.9 9 Sur 22 Sudoeste 0 -- -- 51
2020-08-27 14:00:00 30 9 Sur 20 Sur 0 -- -- 53
2020-08-27 13:00:00 31.2 6 Sur 16 Sudeste 0 -- -- 50
2020-08-27 12:00:00 30.2 4 Sudeste 16 Sudeste 0 -- -- 53
2020-08-27 11:00:00 29.7 8 Sur 15 Sur 0 -- -- 54
2020-08-27 10:00:00 28.7 5 Sur 13 Sur 0 -- -- 58
2020-08-27 09:00:00 25.8 0 Calma 8 Nordeste 0 -- -- 79
2020-08-27 08:00:00 22.7 4 Norte 8 Norte 0 -- -- 87
2020-08-27 07:00:00 22.2 5 Norte 8 Noroeste 0 -- -- 87
2020-08-27 06:00:00 22.2 5 Norte 8 Norte 0 -- -- 87
2020-08-27 05:00:00 22.4 4 Norte 7 Norte 0 -- -- 87
2020-08-27 04:00:00 22.7 0 Calma 21 Nordeste 0 -- -- 86
2020-08-27 03:00:00 23 3 Noroeste 9 Norte 0 -- -- 86
2020-08-27 02:00:00 23.1 3 Norte 7 Nordeste 0 -- -- 87
2020-08-27 01:00:00 23.7 5 Norte 12 Norte 0 -- -- 86
2020-08-27 00:00:00 24.1 3 Norte 6 Norte 0 -- -- 83
2020-08-26 23:00:00 24.6 3 Norte 7 Norte 0 -- -- 81
2020-08-26 22:00:00 25 2 Norte 8 Oeste 0 -- -- 80
2020-08-26 21:00:00 26 0 Calma 18 Sudoeste 0 -- -- 77
2020-08-26 20:00:00 26.8 8 Sudoeste 22 Sur 0 -- -- 73
2020-08-26 19:00:00 27.5 9 Sur 22 Sur 0 -- -- 66
2020-08-26 18:00:00 28.8 12 Sur 24 Sudoeste 0 -- -- 58
2020-08-26 17:00:00 29.6 9 Sudoeste 19 Sur 0 -- -- 51
2020-08-26 16:00:00 29.6 7 Sur 19 Sur 0 -- -- 54
2020-08-26 15:00:00 30.9 7 Sur 19 Sur 0 -- -- 54
2020-08-26 14:00:00 30.5 7 Sur 19 Sudoeste 0 -- -- 55
2020-08-26 13:00:00 31.5 8 Sur 17 Sudoeste 0 -- -- 53
2020-08-26 12:00:00 30.4 3 Sudeste 13 Nordeste 0 -- -- 44
2020-08-26 11:00:00 29.8 3 Sudeste 15 Nordeste 0 -- -- 52
2020-08-26 10:00:00 29.1 2 Sudeste 10 Sudeste 0 -- -- 54
2020-08-26 09:00:00 25.9 0 Calma 11 Noroeste 0 -- -- 65
2020-08-26 08:00:00 22.9 5 Norte 10 Norte 0 -- -- 76
2020-08-26 07:00:00 22.2 3 Norte 11 Norte 0 -- -- 82
2020-08-26 06:00:00 22.7 4 Noroeste 9 Norte 0 -- -- 81
2020-08-26 05:00:00 23.8 4 Noroeste 12 Norte 0 -- -- 79
2020-08-26 04:00:00 23.3 2 Noroeste 10 Norte 0 -- -- 83
2020-08-26 03:00:00 23.1 0 Calma 9 Norte 0 -- -- 83
2020-08-26 02:00:00 23.5 3 Norte 6 Norte 0 -- -- 82
2020-08-26 01:00:00 23.7 0 Calma 8 Nordeste 0 -- -- 86
2020-08-26 00:00:00 24 3 Norte 7 Norte 0 -- -- 86
2020-08-25 23:00:00 24.7 0 Calma 4 Sudoeste 0 -- -- 84
2020-08-25 22:00:00 25.8 2 Oeste 22 Sudoeste 0 -- -- 81
2020-08-25 21:00:00 26.2 9 Sudoeste 24 Sudoeste 0 -- -- 78
2020-08-25 20:00:00 26.7 12 Sudoeste 28 Sur 0 -- -- 75
2020-08-25 19:00:00 27.2 14 Sur 29 Sur 0 -- -- 72
2020-08-25 18:00:00 29.7 9 Sur 31 Sudoeste 0 -- -- 60
2020-08-25 17:00:00 29.6 14 Sur 31 Sur 0 -- -- 58
2020-08-25 16:00:00 31.2 11 Sudoeste 41 Sur 0 -- -- 53
2020-08-25 15:00:00 30.1 13 Sudoeste 37 Sudoeste 0 -- -- 54
2020-08-25 14:00:00 29.7 16 Sudoeste 37 Sudoeste 0 -- -- 54
2020-08-25 13:00:00 31 14 Sur 31 Sur 0 -- -- 51
2020-08-25 12:00:00 30.4 10 Sudoeste 26 Sur 0 -- -- 50
2020-08-25 11:00:00 29 10 Sur 24 Sudoeste 0 -- -- 54
2020-08-25 10:00:00 28.6 5 Sudoeste 14 Sudoeste 0 -- -- 50
2020-08-25 09:00:00 25.3 8 Sudoeste 18 Sudoeste 0 -- -- 62
2020-08-25 08:00:00 23.7 4 Sur 12 Oeste 0 -- -- 70
2020-08-25 07:00:00 23.5 4 Oeste 14 Noroeste 0 -- -- 71
2020-08-25 06:00:00 22.7 0 Calma 10 Sudoeste 0 -- -- 73
2020-08-25 05:00:00 21.3 3 Oeste 12 Sudoeste 0 -- -- 72
2020-08-25 04:00:00 20.7 5 Norte 9 Sudoeste 0 -- -- 74
2020-08-25 03:00:00 20.9 0 Calma 13 Norte 0 -- -- 74
2020-08-25 02:00:00 21.8 4 Norte 12 Noroeste 0 -- -- 74
2020-08-25 01:00:00 22.2 4 Norte 10 Sudoeste 0 -- -- 76
2020-08-25 00:00:00 22.7 3 Norte 9 Norte 0 -- -- 80
2020-08-24 23:00:00 23.3 3 Norte 8 Norte 0 -- -- 75
2020-08-24 22:00:00 23.7 4 Norte 7 Norte 0 -- -- 71
2020-08-24 21:00:00 24.6 3 Oeste 17 Sur 0 -- -- 66
2020-08-24 20:00:00 25.2 6 Sudoeste 17 Sudoeste 0 -- -- 60
2020-08-24 19:00:00 25.9 8 Sur 21 Sudoeste 0 -- -- 54
2020-08-24 18:00:00 25.6 9 Sur 23 Sur 0 -- -- 53
2020-08-24 17:00:00 26.1 9 Sur 25 Sur 0 -- -- 49
2020-08-24 16:00:00 27.6 12 Sur 24 Sudoeste 0 -- -- 43
2020-08-24 15:00:00 27.4 12 Sur 27 Sudoeste 0 -- -- 41
2020-08-24 14:00:00 28.5 9 Sudoeste 24 Sudoeste 0 -- -- 39
2020-08-24 13:00:00 28.5 10 Sur 22 Sur 0 -- -- 40
2020-08-24 12:00:00 30.1 6 Sur 15 Sur 0 -- -- 41
2020-08-24 11:00:00 25.9 5 Sur 14 Sudeste 0 -- -- 47
2020-08-24 10:00:00 27 4 Sur 13 Sur 0 -- -- 45
2020-08-24 09:00:00 23.2 2 Norte 9 Norte 0 -- -- 79
2020-08-24 08:00:00 22.2 2 Norte 7 Norte 0 -- -- 89
2020-08-24 07:00:00 22.1 0 Calma 6 Sudeste 0.1 -- -- 88
2020-08-24 06:00:00 23.1 2 Oeste 8 Noroeste 0.5 -- -- 85
2020-08-24 05:00:00 23.6 0 Calma 7 Norte 0 -- -- 78
2020-08-24 04:00:00 23.1 3 Norte 8 Norte 0 -- -- 78
2020-08-24 03:00:00 23.2 2 Norte 8 Sudoeste 0 -- -- 76
2020-08-24 02:00:00 23.7 4 Sudoeste 7 Sudoeste 0 -- -- 75
2020-08-24 01:00:00 23.4 0 Calma 8 Sudoeste 0 -- -- 74
2020-08-24 00:00:00 24.1 0 Calma 6 Noroeste 0 -- -- 69
2020-08-23 23:00:00 24.3 4 Sur 10 Sudoeste 0 -- -- 67
2020-08-23 22:00:00 24.6 4 Sur 14 Sur 0 -- -- 66
2020-08-23 21:00:00 24.7 5 Sur 15 Sur 0 -- -- 65
2020-08-23 20:00:00 24.7 5 Sur 13 Sur 0 -- -- 64
2020-08-23 19:00:00 25.1 5 Sur 18 Sur 0 -- -- 61
2020-08-23 18:00:00 25.9 9 Sur 21 Sur 0 -- -- 59
2020-08-23 17:00:00 27.4 8 Sur 22 Sur 0 -- -- 50
2020-08-23 16:00:00 26.7 10 Sur 23 Sudoeste 0 -- -- 54
2020-08-23 15:00:00 28.6 12 Sur 30 Sudoeste 0 -- -- 47
2020-08-23 14:00:00 29.1 12 Sur 28 Sudoeste 0 -- -- 45
2020-08-23 13:00:00 29.3 10 Sur 24 Sudoeste 0 -- -- 44
2020-08-23 12:00:00 29.7 8 Sur 21 Sur 0 -- -- 43
2020-08-23 11:00:00 28.3 4 Sudeste 15 Sudoeste 0 -- -- 41
2020-08-23 10:00:00 26.7 2 Sur 9 Sudeste 0 -- -- 49
2020-08-23 09:00:00 24.4 4 Norte 10 Norte 0 -- -- 56
2020-08-23 08:00:00 22.9 5 Norte 12 Norte 0 -- -- 60
2020-08-23 07:00:00 22.1 6 Norte 12 Norte 0 -- -- 67
2020-08-23 06:00:00 21.6 7 Norte 12 Norte 0 -- -- 71
2020-08-23 05:00:00 21.7 6 Norte 13 Norte 0 -- -- 69
2020-08-23 04:00:00 22.6 5 Norte 10 Norte 0 -- -- 65
2020-08-23 03:00:00 22.5 3 Norte 11 Oeste 0 -- -- 67
2020-08-23 02:00:00 22.1 4 Oeste 12 Norte 0 -- -- 68
2020-08-23 01:00:00 22.5 5 Norte 11 Norte 0 -- -- 65
2020-08-23 00:00:00 23.2 4 Norte 11 Norte 0 -- -- 63
2020-08-22 23:00:00 23.7 3 Noroeste 9 Noroeste 0 -- -- 68
2020-08-22 22:00:00 24.3 0 Calma 7 Norte 0 -- -- 68
2020-08-22 21:00:00 25.5 2 Oeste 9 Sur 0 -- -- 64
2020-08-22 20:00:00 26.4 5 Sur 13 Sur 0 -- -- 57
2020-08-22 19:00:00 28.4 5 Sur 19 Sur 0 -- -- 49
2020-08-22 18:00:00 29.8 7 Sur 22 Sur 0 -- -- 46
2020-08-22 17:00:00 29.5 8 Sur 20 Sudoeste 0 -- -- 45
2020-08-22 16:00:00 30 10 Sur 20 Sudoeste 0 -- -- 44
2020-08-22 15:00:00 30.4 7 Sur 21 Sur 0 -- -- 44
2020-08-22 14:00:00 31.2 4 Este 17 Nordeste 0 -- -- 40
2020-08-22 13:00:00 31.2 5 Sudeste 16 Sur 0 -- -- 38
2020-08-22 12:00:00 32.2 3 Sudeste 14 Sudoeste 0 -- -- 34
2020-08-22 11:00:00 31 3 Este 13 Norte 0 -- -- 38
2020-08-22 10:00:00 29.2 2 Sudeste 9 Nordeste 0 -- -- 42
2020-08-22 09:00:00 27 6 Norte 12 Norte 0 -- -- 48
2020-08-22 08:00:00 24.9 0 Calma 9 Norte 0 -- -- 67
2020-08-22 07:00:00 24.8 3 Norte 12 Norte 0 -- -- 71
2020-08-22 06:00:00 24.8 3 Norte 8 Norte 0 -- -- 82
2020-08-22 05:00:00 25 0 Calma 6 Norte 0 -- -- 82
2020-08-22 04:00:00 24.5 3 Norte 8 Norte 0 -- -- 84
2020-08-22 03:00:00 24.1 2 Oeste 10 Norte 0 -- -- 86
2020-08-22 02:00:00 24.3 0 Calma 8 Norte 0 -- -- 86
2020-08-22 01:00:00 24.3 3 Norte 6 Norte 0 -- -- 86
2020-08-22 00:00:00 24.7 0 Calma 7 Norte 0 -- -- 85
2020-08-21 23:00:00 25.8 0 Calma 5 Oeste 0 -- -- 80
2020-08-21 22:00:00 26.7 0 Calma 4 Sudeste 0 -- -- 78
2020-08-21 21:00:00 26.4 0 Calma 5 Sur 0 -- -- 79
2020-08-21 20:00:00 26.9 3 Sur 9 Nordeste 0 -- -- 75
2020-08-21 19:00:00 28.3 3 Sur 11 Sur 0 -- -- 66
2020-08-21 18:00:00 28.3 3 Este 17 Nordeste 0 -- -- 65
2020-08-21 17:00:00 31.2 4 Este 16 Nordeste 0 -- -- 56
2020-08-21 16:00:00 30.4 4 Este 18 Nordeste 0 -- -- 56
2020-08-21 15:00:00 31.1 4 Sudeste 18 Sudeste 0 -- -- 53
2020-08-21 14:00:00 31.1 5 Sur 16 Sudeste 0 -- -- 46
2020-08-21 13:00:00 31.4 4 Este 13 Sudeste 0 -- -- 44
2020-08-21 12:00:00 30.1 5 Nordeste 13 Sudeste 0 -- -- 49
2020-08-21 11:00:00 29.9 3 Este 12 Nordeste 0 -- -- 50
2020-08-21 10:00:00 28.4 2 Este 9 Sudeste 0 -- -- 59
2020-08-21 09:00:00 26.4 0 Calma 10 Nordeste 0 -- -- 77
2020-08-21 08:00:00 23.1 4 Norte 8 Norte 0 -- -- 89
2020-08-21 07:00:00 22.9 3 Norte 9 Norte 0 -- -- 89
2020-08-21 06:00:00 22.9 6 Norte 12 Norte 0 -- -- 88
2020-08-21 05:00:00 22.4 5 Norte 12 Norte 0 -- -- 87
2020-08-21 04:00:00 22.4 4 Norte 10 Noroeste 0 -- -- 87
2020-08-21 03:00:00 22.6 6 Norte 13 Norte 0 -- -- 87
2020-08-21 02:00:00 23 4 Norte 11 Norte 0 -- -- 87
2020-08-21 01:00:00 23.4 5 Norte 9 Norte 0 -- -- 87
2020-08-21 00:00:00 24.1 5 Norte 10 Norte 0 -- -- 87